La Joya, New Mexico
Current Conditions -  °F | °C
As of 12:35 AM on Saturday 29 Nov 2014 (Local Time) from KE80 Reporting Station
Clear Clear  
Wind Chill: 24°   Ceiling: Unl
Heat Index: 30°   Visibility: 10mi
Dew Point: 15°   Wind: 7mph
Humidity: 53%   Direction: 310°NW
Pressure: 30.06"   Gusts: NA
Location:  34.35°N, 106.84°W
Report Text: KE80 290735Z AUTO 31006KT 10SM CLR M01/M09 A3006 RMK AO2 T10091094
Loading
Personal Weather Stations






























Interactive Weather Map New forecast layout! Learn more

10-Day Weather Forecast

Advertisements
Track Severe Weather on mobile